Time;durP1;ratioP1;P1;durP2;ratioP2;P2;SDS_P1;SDS_P2;PMS_P1;PMS_P2;Temp;Humidity;BMP_temperature;BMP_pressure;BME280_temperature;BME280_humidity;BME280_pressure;Samples;Min_cycle;Max_cycle;Signal;HPM_P1;HPM_P2
2021/11/09 00:02:27;;;;;;;2.47;2.38;;;5.30;99.90;;;;;;5042065;28;20727;-75
2021/11/09 00:04:56;;;;;;;2.60;2.40;;;5.30;99.90;;;;;;5052980;28;20242;-75
2021/11/09 00:07:29;;;;;;;2.60;2.50;;;5.20;99.90;;;;;;5041472;28;20219;-73
2021/11/09 00:09:57;;;;;;;2.40;2.30;;;5.20;99.90;;;;;;5041409;28;20231;-76
2021/11/09 00:12:27;;;;;;;2.83;2.63;;;5.20;99.90;;;;;;5041810;28;20583;-75
2021/11/09 00:14:56;;;;;;;2.83;2.60;;;5.30;99.90;;;;;;5023067;28;20230;-73
2021/11/09 00:17:23;;;;;;;2.88;2.67;;;5.30;99.90;;;;;;5042309;28;20223;-75
2021/11/09 00:19:50;;;;;;;2.53;2.42;;;5.30;99.90;;;;;;5022993;28;20252;-74
2021/11/09 00:22:17;;;;;;;2.53;2.42;;;5.30;99.90;;;;;;4998261;28;20229;-73
2021/11/09 00:24:46;;;;;;;2.63;2.53;;;5.30;99.90;;;;;;4994651;28;20222;-73
2021/11/09 00:27:13;;;;;;;2.35;2.25;;;5.30;99.90;;;;;;5026599;28;20227;-73
2021/11/09 00:29:41;;;;;;;2.53;2.42;;;5.30;99.90;;;;;;5042467;28;20301;-73
2021/11/09 00:32:09;;;;;;;2.40;2.30;;;5.30;99.90;;;;;;5035986;28;20647;-73
2021/11/09 00:34:37;;;;;;;2.40;2.30;;;5.30;99.90;;;;;;5040910;28;20247;-82
2021/11/09 00:37:05;;;;;;;2.90;2.70;;;5.30;99.90;;;;;;5015065;28;20237;-74
2021/11/09 00:39:32;;;;;;;2.50;2.30;;;5.20;99.90;;;;;;5049454;28;20243;-74
2021/11/09 00:42:01;;;;;;;2.22;2.13;;;5.20;99.90;;;;;;5034060;28;20398;-73
2021/11/09 00:44:28;;;;;;;2.75;2.55;;;5.10;99.90;;;;;;5035396;28;20219;-76
2021/11/09 00:46:55;;;;;;;2.95;2.70;;;5.00;99.90;;;;;;5036612;28;20604;-80
2021/11/09 00:49:23;;;;;;;2.83;2.63;;;4.90;99.90;;;;;;5038471;28;20219;-73
2021/11/09 00:51:51;;;;;;;2.60;2.50;;;4.90;99.90;;;;;;5044558;28;20254;-73
2021/11/09 00:54:18;;;;;;;2.83;2.65;;;4.90;99.90;;;;;;5042055;28;20713;-74
2021/11/09 00:56:46;;;;;;;2.80;2.70;;;4.90;99.90;;;;;;5049054;28;20238;-73
2021/11/09 00:59:15;;;;;;;2.90;2.70;;;4.90;99.90;;;;;;5053956;28;20226;-75
2021/11/09 01:01:43;;;;;;;2.67;2.58;;;4.90;99.90;;;;;;5043551;28;20214;-73
2021/11/09 01:04:10;;;;;;;2.50;2.40;;;5.00;99.90;;;;;;5041833;28;20237;-78
2021/11/09 01:06:38;;;;;;;2.80;2.60;;;5.00;99.90;;;;;;5052316;28;20606;-73
2021/11/09 01:09:06;;;;;;;2.45;2.35;;;5.00;99.90;;;;;;5046130;28;20230;-74
2021/11/09 01:11:35;;;;;;;2.70;2.50;;;5.00;99.90;;;;;;5040267;28;20225;-74
2021/11/09 01:14:03;;;;;;;2.78;2.58;;;5.00;99.90;;;;;;5043931;28;20215;-76
2021/11/09 01:16:32;;;;;;;2.45;2.35;;;5.00;99.90;;;;;;5041444;28;20234;-73
2021/11/09 01:19:04;;;;;;;2.85;2.65;;;4.90;99.90;;;;;;5040991;28;20210;-76
2021/11/09 01:21:32;;;;;;;2.65;2.55;;;4.90;99.90;;;;;;5044011;28;20218;-73
2021/11/09 01:23:59;;;;;;;2.35;2.25;;;4.80;99.90;;;;;;5050477;28;20225;-74
2021/11/09 01:26:27;;;;;;;2.35;2.25;;;4.70;99.90;;;;;;5052254;28;20688;-73
2021/11/09 01:28:58;;;;;;;2.60;2.40;;;4.70;99.90;;;;;;5057479;28;20227;-76
2021/11/09 01:31:26;;;;;;;2.65;2.45;;;4.60;99.90;;;;;;5047786;28;20724;-76
2021/11/09 01:33:55;;;;;;;2.35;2.25;;;4.60;99.90;;;;;;5048322;28;20760;-76
2021/11/09 01:36:22;;;;;;;2.65;2.55;;;4.60;99.90;;;;;;5048175;28;20751;-75
2021/11/09 01:38:49;;;;;;;2.63;2.50;;;4.60;99.90;;;;;;5045282;28;20233;-78
2021/11/09 01:41:17;;;;;;;2.97;2.78;;;4.60;99.90;;;;;;5051574;28;20229;-75
2021/11/09 01:43:45;;;;;;;3.00;2.80;;;4.60;99.90;;;;;;5043541;28;20604;-75
2021/11/09 01:46:14;;;;;;;2.65;2.55;;;4.60;99.90;;;;;;5046652;28;20218;-75
2021/11/09 01:48:41;;;;;;;2.80;2.60;;;4.60;99.90;;;;;;5048065;28;20214;-78
2021/11/09 01:51:14;;;;;;;2.60;2.50;;;4.50;99.90;;;;;;5048616;28;20235;-76
2021/11/09 01:53:45;;;;;;;2.65;2.50;;;4.40;99.90;;;;;;5043041;28;20239;-77
2021/11/09 01:56:16;;;;;;;2.88;2.72;;;4.40;99.90;;;;;;5048978;28;20684;-76
2021/11/09 01:58:43;;;;;;;2.63;2.53;;;4.40;99.90;;;;;;5048285;28;20241;-75
2021/11/09 02:01:13;;;;;;;2.28;2.17;;;4.50;99.90;;;;;;5046489;28;20227;-74
2021/11/09 02:03:43;;;;;;;2.42;2.33;;;4.40;99.90;;;;;;5052850;28;20218;-74
2021/11/09 02:06:14;;;;;;;2.40;2.22;;;4.40;99.90;;;;;;5040818;28;20219;-74
2021/11/09 02:08:42;;;;;;;2.30;2.20;;;4.40;99.90;;;;;;5047429;28;20218;-75
2021/11/09 02:11:10;;;;;;;2.40;2.10;;;4.40;99.90;;;;;;5048795;28;20305;-73
2021/11/09 02:13:37;;;;;;;2.72;2.63;;;4.40;99.90;;;;;;5042696;28;20219;-75
2021/11/09 02:16:05;;;;;;;2.55;2.45;;;4.30;99.90;;;;;;5051537;28;20215;-79
2021/11/09 02:18:37;;;;;;;2.40;2.30;;;4.40;99.90;;;;;;5047375;28;20716;-75
2021/11/09 02:21:08;;;;;;;2.35;2.25;;;4.40;99.90;;;;;;5052014;28;20222;-76
2021/11/09 02:23:37;;;;;;;2.65;2.55;;;4.30;99.90;;;;;;5039908;28;20306;-73
2021/11/09 02:26:05;;;;;;;2.47;2.28;;;4.30;99.90;;;;;;5015451;28;20219;-78
2021/11/09 02:28:33;;;;;;;3.00;2.80;;;4.30;99.90;;;;;;5057947;28;20222;-74
2021/11/09 02:31:00;;;;;;;2.67;2.55;;;4.30;99.90;;;;;;5045182;28;20245;-74
2021/11/09 02:33:27;;;;;;;2.83;2.72;;;4.30;99.90;;;;;;5040439;28;20218;-74
2021/11/09 02:35:54;;;;;;;2.90;2.53;;;4.30;99.90;;;;;;5044803;28;20230;-75
2021/11/09 02:38:23;;;;;;;2.65;2.55;;;4.40;99.90;;;;;;5043392;28;20219;-75
2021/11/09 02:40:50;;;;;;;2.47;2.38;;;4.40;99.90;;;;;;5043652;28;20230;-79
2021/11/09 02:43:18;;;;;;;2.25;2.15;;;4.40;99.90;;;;;;5042607;28;20218;-75
2021/11/09 02:45:52;;;;;;;2.88;2.78;;;4.40;99.90;;;;;;5041619;28;20242;-73
2021/11/09 02:48:22;;;;;;;2.78;2.58;;;4.40;99.90;;;;;;5048236;28;20236;-73
2021/11/09 02:50:53;;;;;;;2.88;2.70;;;4.40;99.90;;;;;;5049520;28;20280;-74
2021/11/09 02:53:31;;;;;;;2.47;2.38;;;4.30;99.90;;;;;;5047058;28;20314;-74
2021/11/09 02:56:04;;;;;;;2.15;2.05;;;4.30;99.90;;;;;;5044790;28;20317;-74
2021/11/09 02:58:42;;;;;;;3.30;3.10;;;4.30;99.90;;;;;;5046731;28;20215;-75
2021/11/09 03:01:14;;;;;;;2.63;2.53;;;4.30;99.90;;;;;;5046299;28;20237;-78
2021/11/09 03:03:48;;;;;;;2.80;2.60;;;4.30;99.90;;;;;;5046948;28;20635;-74
2021/11/09 03:06:25;;;;;;;2.53;2.42;;;4.30;99.90;;;;;;5044821;22;20231;-80
2021/11/09 03:08:56;;;;;;;2.70;2.53;;;4.20;99.90;;;;;;5041935;28;20408;-75
2021/11/09 03:11:26;;;;;;;2.88;2.67;;;4.20;99.90;;;;;;5046555;28;20215;-75
2021/11/09 03:13:54;;;;;;;2.40;2.30;;;4.20;99.90;;;;;;5048680;28;20210;-75
2021/11/09 03:16:21;;;;;;;2.50;2.30;;;4.20;99.90;;;;;;5031669;28;20249;-76
2021/11/09 03:18:53;;;;;;;2.60;2.40;;;4.30;99.90;;;;;;5035656;28;20253;-76
2021/11/09 03:44:11;;;;;;;2.40;2.30;;;4.40;99.90;;;;;;4972187;28;20217;-75
2021/11/09 03:46:28;;;;;;;3.13;2.92;;;4.30;99.90;;;;;;5018053;28;20239;-75
2021/11/09 03:48:55;;;;;;;2.67;2.58;;;4.20;99.90;;;;;;5036970;28;20225;-76
2021/11/09 03:51:22;;;;;;;2.60;2.50;;;4.20;99.90;;;;;;5033015;28;20265;-75
2021/11/09 03:53:49;;;;;;;2.58;2.38;;;4.20;99.90;;;;;;5030967;28;20231;-75
2021/11/09 03:56:20;;;;;;;2.42;2.33;;;4.20;99.90;;;;;;5023196;28;20220;-76
2021/11/09 03:58:53;;;;;;;2.53;2.33;;;4.20;99.90;;;;;;5027240;28;20245;-76
2021/11/09 04:01:23;;;;;;;2.22;2.13;;;4.20;99.90;;;;;;5020741;28;20215;-75
2021/11/09 04:04:04;;;;;;;2.35;2.25;;;4.30;99.90;;;;;;5027894;28;20277;-75
2021/11/09 04:06:35;;;;;;;2.80;2.70;;;4.30;99.90;;;;;;5028812;28;20222;-73
2021/11/09 04:09:09;;;;;;;2.30;2.20;;;4.30;99.90;;;;;;5021653;28;20250;-76
2021/11/09 04:11:45;;;;;;;2.67;2.47;;;4.30;99.90;;;;;;5033390;28;20524;-75
2021/11/09 04:14:21;;;;;;;3.08;2.88;;;4.30;99.90;;;;;;5022430;28;20254;-75
2021/11/09 04:16:54;;;;;;;2.00;1.90;;;4.30;99.90;;;;;;5034883;28;20313;-77
2021/11/09 04:19:29;;;;;;;1.88;1.77;;;4.30;99.90;;;;;;5022247;28;20219;-77
2021/11/09 04:24:58;;;;;;;2.50;2.40;;;4.30;99.90;;;;;;5027066;28;20884;-77
2021/11/09 04:27:31;;;;;;;2.15;2.05;;;4.20;99.90;;;;;;5030238;28;20223;-77
2021/11/09 05:03:10;;;;;;;3.08;2.88;;;4.00;99.90;;;;;;5028070;28;20234;-77
2021/11/09 05:08:28;;;;;;;2.17;2.08;;;4.00;99.90;;;;;;5022624;28;20230;-77
2021/11/09 05:10:58;;;;;;;2.78;2.67;;;3.90;99.90;;;;;;5029435;28;20314;-76
2021/11/09 05:13:26;;;;;;;2.45;2.35;;;3.90;99.90;;;;;;5024383;28;20224;-76
2021/11/09 05:15:53;;;;;;;3.13;2.92;;;3.90;99.90;;;;;;5022695;28;20713;-76
2021/11/09 05:18:23;;;;;;;2.50;2.40;;;3.90;99.90;;;;;;5027456;28;20239;-75
2021/11/09 05:20:50;;;;;;;3.00;2.80;;;3.90;99.90;;;;;;5022189;28;20234;-75
2021/11/09 05:23:17;;;;;;;2.75;2.63;;;3.90;99.90;;;;;;5029903;28;20220;-77
2021/11/09 05:25:47;;;;;;;3.40;3.13;;;3.80;99.90;;;;;;5032958;28;20230;-75
2021/11/09 05:28:14;;;;;;;3.03;2.83;;;3.80;99.90;;;;;;5027373;28;20665;-75
2021/11/09 05:30:45;;;;;;;3.05;2.92;;;3.70;99.90;;;;;;5030661;28;20589;-75
2021/11/09 05:33:12;;;;;;;3.30;3.10;;;3.60;99.90;;;;;;5030209;28;20302;-77
2021/11/09 05:35:41;;;;;;;2.80;2.60;;;3.60;99.90;;;;;;5025994;28;20228;-77
2021/11/09 05:38:09;;;;;;;2.80;2.70;;;3.60;99.90;;;;;;5022919;28;20727;-74
2021/11/09 05:40:39;;;;;;;2.63;2.53;;;3.70;99.90;;;;;;5033331;28;21607;-75
2021/11/09 05:43:07;;;;;;;2.67;2.58;;;3.70;99.90;;;;;;5025038;28;20226;-76
2021/11/09 05:45:34;;;;;;;2.70;2.60;;;3.70;99.90;;;;;;5019259;28;20646;-75
2021/11/09 05:48:01;;;;;;;2.95;2.75;;;3.70;99.90;;;;;;5027510;28;20214;-75
2021/11/09 05:50:30;;;;;;;3.83;3.58;;;3.70;99.90;;;;;;5031760;28;20214;-75
2021/11/09 05:52:58;;;;;;;3.22;3.05;;;3.60;99.90;;;;;;5031385;28;20313;-77
2021/11/09 05:55:25;;;;;;;3.40;3.20;;;3.60;99.90;;;;;;5024547;28;20239;-78
2021/11/09 05:57:52;;;;;;;2.50;2.40;;;3.60;99.90;;;;;;5024544;28;20227;-77
2021/11/09 06:00:20;;;;;;;3.10;2.83;;;3.60;99.90;;;;;;5030724;28;20223;-77
2021/11/09 06:02:47;;;;;;;2.45;2.35;;;3.60;99.90;;;;;;5021929;28;20235;-77
2021/11/09 06:05:14;;;;;;;3.10;2.90;;;3.60;99.90;;;;;;5016289;28;20243;-78
2021/11/09 06:07:41;;;;;;;3.00;2.90;;;3.60;99.90;;;;;;5007904;28;20220;-75
2021/11/09 06:10:10;;;;;;;2.92;2.72;;;3.50;99.90;;;;;;5027434;28;20230;-77
2021/11/09 06:12:37;;;;;;;2.30;2.20;;;3.50;99.90;;;;;;5021906;28;20231;-76
2021/11/09 06:15:05;;;;;;;2.33;2.22;;;3.50;99.90;;;;;;5031317;28;20226;-77
2021/11/09 06:17:32;;;;;;;2.78;2.53;;;3.50;99.90;;;;;;5027175;28;20595;-73
2021/11/09 06:19:59;;;;;;;2.60;2.40;;;3.50;99.90;;;;;;5029748;28;20214;-76
2021/11/09 06:22:26;;;;;;;2.97;2.83;;;3.50;99.90;;;;;;5034049;28;20225;-76
2021/11/09 06:24:53;;;;;;;3.25;3.00;;;3.50;99.90;;;;;;5020619;28;20219;-75
2021/11/09 06:27:23;;;;;;;3.08;2.88;;;3.50;99.90;;;;;;5023515;28;20338;-77
2021/11/09 06:29:50;;;;;;;2.72;2.63;;;3.50;99.90;;;;;;5030095;28;20219;-77
2021/11/09 06:32:17;;;;;;;2.70;2.60;;;3.50;99.90;;;;;;5030448;28;20220;-77
2021/11/09 06:34:46;;;;;;;3.00;2.90;;;3.50;99.90;;;;;;5037866;28;20261;-77
2021/11/09 06:37:13;;;;;;;2.88;2.78;;;3.60;99.90;;;;;;5027712;28;20234;-76
2021/11/09 06:39:40;;;;;;;3.22;3.03;;;3.60;99.90;;;;;;5022502;28;20226;-77
2021/11/09 06:42:07;;;;;;;2.85;2.65;;;3.60;99.90;;;;;;5017080;28;20223;-78
2021/11/09 06:44:36;;;;;;;3.25;3.05;;;3.70;99.90;;;;;;5029791;28;20218;-78
2021/11/09 06:47:04;;;;;;;3.13;2.92;;;3.70;99.90;;;;;;5024113;28;20719;-78
2021/11/09 06:49:31;;;;;;;2.80;2.70;;;3.70;99.90;;;;;;5025867;28;20219;-77
2021/11/09 06:51:59;;;;;;;2.95;2.65;;;3.80;99.90;;;;;;5023017;28;20227;-78
2021/11/09 06:54:26;;;;;;;2.78;2.67;;;3.80;99.90;;;;;;5029782;28;20244;-77
2021/11/09 06:56:54;;;;;;;2.92;2.72;;;3.80;99.90;;;;;;5026203;28;20270;-78
2021/11/09 06:59:21;;;;;;;2.75;2.50;;;3.80;99.90;;;;;;5027583;28;20227;-76
2021/11/09 07:01:50;;;;;;;2.90;2.70;;;3.80;99.90;;;;;;5024729;28;20758;-77
2021/11/09 07:04:17;;;;;;;1.83;1.73;;;3.80;99.90;;;;;;5028177;28;20249;-78
2021/11/09 07:06:45;;;;;;;2.97;2.83;;;3.80;99.90;;;;;;5025073;28;20229;-78
2021/11/09 07:09:13;;;;;;;3.05;2.85;;;3.80;99.90;;;;;;5015352;28;20219;-78
2021/11/09 07:11:40;;;;;;;2.90;2.80;;;3.80;99.90;;;;;;5016770;28;20301;-78
2021/11/09 07:14:08;;;;;;;3.20;2.90;;;3.90;99.90;;;;;;5016958;28;20703;-77
2021/11/09 07:16:36;;;;;;;2.90;2.70;;;3.90;99.90;;;;;;5021907;28;20228;-76
2021/11/09 07:19:05;;;;;;;2.53;2.40;;;3.90;99.90;;;;;;5021670;28;20226;-79
2021/11/09 07:21:32;;;;;;;2.92;2.72;;;4.10;99.90;;;;;;5028194;28;20639;-76
2021/11/09 07:23:59;;;;;;;3.15;2.97;;;4.80;99.90;;;;;;5032677;28;20623;-78
2021/11/09 07:26:28;;;;;;;2.78;2.58;;;5.80;99.90;;;;;;5026748;28;20215;-77
2021/11/09 07:28:56;;;;;;;3.00;2.80;;;6.80;99.90;;;;;;5022674;28;20215;-78
2021/11/09 07:31:24;;;;;;;2.85;2.75;;;7.70;99.90;;;;;;5017733;28;20591;-76
2021/11/09 07:33:52;;;;;;;2.85;2.65;;;8.60;99.90;;;;;;5015158;28;20727;-77
2021/11/09 07:36:21;;;;;;;3.80;3.53;;;9.00;99.90;;;;;;5010547;28;20227;-76
2021/11/09 07:38:48;;;;;;;2.80;2.65;;;9.60;99.90;;;;;;5011018;28;20619;-77
2021/11/09 07:41:15;;;;;;;2.70;2.50;;;10.20;99.90;;;;;;5013827;28;20235;-76
2021/11/09 07:43:42;;;;;;;2.88;2.58;;;10.80;99.90;;;;;;5013262;28;20219;-76
2021/11/09 07:46:10;;;;;;;3.15;2.90;;;11.10;99.90;;;;;;5016930;28;20303;-77
2021/11/09 07:48:37;;;;;;;2.88;2.53;;;11.20;99.90;;;;;;5021086;28;20237;-76
2021/11/09 07:51:04;;;;;;;2.85;2.65;;;11.20;99.90;;;;;;5014845;28;20218;-79
2021/11/09 07:53:36;;;;;;;3.00;2.80;;;11.40;99.90;;;;;;5010382;28;20231;-77
2021/11/09 07:56:16;;;;;;;2.80;2.45;;;11.50;99.90;;;;;;5020857;28;20720;-77
2021/11/09 07:58:51;;;;;;;2.90;2.70;;;11.70;99.90;;;;;;5019532;28;20292;-76
2021/11/09 08:01:21;;;;;;;2.25;2.05;;;11.90;99.90;;;;;;5018415;28;20605;-76
2021/11/09 08:03:59;;;;;;;2.38;2.17;;;12.20;99.90;;;;;;5017751;28;20230;-75
2021/11/09 08:06:28;;;;;;;2.33;2.13;;;12.20;99.90;;;;;;5016736;28;20254;-77
2021/11/09 08:09:09;;;;;;;1.75;1.65;;;12.20;99.90;;;;;;5019703;28;20834;-79
2021/11/09 08:11:40;;;;;;;2.50;2.30;;;12.00;99.90;;;;;;5022488;28;20235;-77
2021/11/09 08:14:07;;;;;;;2.47;2.28;;;12.10;99.90;;;;;;5018065;28;20219;-78
2021/11/09 08:16:35;;;;;;;3.33;1.95;;;12.10;99.90;;;;;;5019180;28;20225;-79
2021/11/09 08:19:02;;;;;;;2.00;1.90;;;12.20;99.90;;;;;;5014586;28;20987;-79
2021/11/09 08:21:29;;;;;;;2.33;2.13;;;12.30;99.90;;;;;;5012779;28;20596;-78
2021/11/09 08:23:58;;;;;;;3.10;2.30;;;12.50;99.90;;;;;;5020168;28;20965;-78
2021/11/09 08:26:25;;;;;;;2.45;2.33;;;12.50;99.90;;;;;;5012106;28;20259;-78
2021/11/09 08:28:53;;;;;;;2.30;2.17;;;12.60;99.90;;;;;;5019349;28;20223;-79
2021/11/09 08:31:22;;;;;;;2.38;2.17;;;12.60;99.90;;;;;;5018555;28;20669;-76
2021/11/09 08:33:50;;;;;;;2.63;2.28;;;12.70;99.90;;;;;;5018782;28;20305;-76
2021/11/09 08:36:22;;;;;;;2.00;1.90;;;12.50;99.90;;;;;;5012295;28;20736;-78
2021/11/09 08:38:52;;;;;;;2.72;2.53;;;12.50;99.90;;;;;;5016692;28;20239;-78
2021/11/09 08:41:26;;;;;;;2.80;2.55;;;12.50;99.90;;;;;;5017717;28;20362;-78
2021/11/09 08:44:02;;;;;;;2.80;2.60;;;12.40;99.90;;;;;;5015210;28;20232;-77
2021/11/09 08:46:34;;;;;;;2.13;1.92;;;12.50;99.90;;;;;;5024257;28;20218;-78
2021/11/09 08:49:03;;;;;;;2.03;1.88;;;12.60;99.90;;;;;;5014114;28;20223;-79
2021/11/09 08:51:30;;;;;;;2.22;2.00;;;12.80;99.90;;;;;;5021233;28;20218;-79
2021/11/09 08:54:08;;;;;;;2.35;2.25;;;13.20;99.90;;;;;;5021055;28;20597;-79
2021/11/09 09:04:58;;;;;;;2.72;2.53;;;14.10;99.90;;;;;;5023809;28;20241;-79
2021/11/09 09:07:26;;;;;;;3.63;2.40;;;14.70;99.90;;;;;;5038221;22;20238;-80
2021/11/09 09:09:56;;;;;;;2.88;2.50;;;15.70;99.90;;;;;;5041361;28;20727;-80
2021/11/09 09:12:25;;;;;;;3.20;2.55;;;17.30;99.90;;;;;;5038596;28;20230;-81
2021/11/09 09:14:53;;;;;;;2.67;2.47;;;18.30;99.90;;;;;;5035396;28;20300;-82
2021/11/09 09:17:20;;;;;;;2.72;2.47;;;18.80;99.90;;;;;;5032574;28;20227;-82
2021/11/09 09:19:52;;;;;;;2.72;2.30;;;18.40;99.90;;;;;;5021190;28;20224;-87
2021/11/09 09:22:23;;;;;;;3.03;2.13;;;17.40;99.90;;;;;;5023302;28;20229;-80
2021/11/09 09:25:06;;;;;;;2.40;2.30;;;16.40;99.90;;;;;;5030193;28;20223;-80
2021/11/09 09:27:50;;;;;;;2.25;2.05;;;15.00;99.90;;;;;;5035573;28;20253;-80
2021/11/09 09:30:40;;;;;;;2.22;2.03;;;14.60;99.90;;;;;;5024633;28;20297;-79
2021/11/09 09:33:36;;;;;;;2.92;2.25;;;14.60;99.90;;;;;;5028646;28;20246;-82
2021/11/09 09:55:37;;;;;;;2.08;1.98;;;15.10;99.90;;;;;;5023672;28;20979;-86
2021/11/09 09:58:06;;;;;;;2.72;2.30;;;15.50;99.90;;;;;;5021342;28;20742;-88
2021/11/09 10:00:36;;;;;;;2.55;2.30;;;15.70;99.90;;;;;;5015883;28;20622;-82
2021/11/09 10:03:05;;;;;;;2.65;2.45;;;15.50;99.90;;;;;;5016349;28;20304;-81
2021/11/09 10:05:37;;;;;;;2.80;2.60;;;15.00;99.90;;;;;;5019494;28;20219;-83
2021/11/09 10:08:11;;;;;;;3.13;2.30;;;14.40;99.90;;;;;;5019590;28;20326;-82
2021/11/09 10:10:39;;;;;;;2.20;2.00;;;14.30;99.90;;;;;;5025849;28;20481;-87
2021/11/09 10:13:09;;;;;;;2.42;2.22;;;14.30;99.90;;;;;;5026159;28;20235;-88
2021/11/09 10:15:40;;;;;;;2.22;2.03;;;14.40;99.90;;;;;;5024522;28;20250;-85
2021/11/09 10:18:12;;;;;;;1.95;1.85;;;14.40;99.90;;;;;;5025583;28;20223;-83
2021/11/09 10:20:43;;;;;;;2.13;1.92;;;14.60;99.90;;;;;;5027960;28;20227;-84
2021/11/09 10:23:14;;;;;;;2.38;1.95;;;14.60;99.90;;;;;;5023083;28;20227;-83
2021/11/09 10:25:42;;;;;;;2.53;2.13;;;14.70;99.90;;;;;;5021534;28;20610;-86
2021/11/09 10:28:13;;;;;;;2.45;2.08;;;14.40;99.90;;;;;;5025404;28;20238;-85
2021/11/09 10:30:45;;;;;;;1.95;1.85;;;13.80;99.90;;;;;;5027673;28;20226;-85
2021/11/09 10:33:13;;;;;;;1.95;1.85;;;13.00;99.90;;;;;;5026955;28;20219;-87
2021/11/09 10:35:40;;;;;;;2.10;1.85;;;12.30;99.90;;;;;;5041276;28;20230;-83
2021/11/09 10:38:08;;;;;;;2.20;1.98;;;12.00;99.90;;;;;;5032849;28;20377;-87
2021/11/09 10:40:38;;;;;;;2.10;2.00;;;11.90;99.90;;;;;;5031792;28;20219;-86
2021/11/09 10:43:07;;;;;;;2.60;2.10;;;12.00;99.90;;;;;;5035921;28;20426;-87
2021/11/09 10:45:37;;;;;;;2.30;2.10;;;12.10;99.90;;;;;;5031200;28;20586;-83
2021/11/09 10:48:08;;;;;;;2.30;2.10;;;12.10;99.90;;;;;;5036163;28;20245;-86
2021/11/09 10:50:37;;;;;;;2.67;2.17;;;12.30;99.90;;;;;;5022769;28;20717;-83
2021/11/09 10:53:10;;;;;;;3.13;2.03;;;12.50;99.90;;;;;;5029434;28;20227;-84
2021/11/09 10:55:43;;;;;;;2.92;2.45;;;12.50;99.90;;;;;;5028797;28;20231;-83
2021/11/09 10:58:42;;;;;;;4.15;2.40;;;12.50;99.90;;;;;;5031943;28;20501;-80
2021/11/09 11:03:59;;;;;;;2.47;2.28;;;12.20;99.90;;;;;;5025184;28;20300;-86
2021/11/09 11:06:28;;;;;;;2.35;2.08;;;12.00;99.90;;;;;;5038970;28;20253;-87
2021/11/09 11:08:58;;;;;;;2.35;2.13;;;12.00;99.90;;;;;;5029272;28;20243;-84
2021/11/09 11:11:28;;;;;;;1.83;1.73;;;12.00;99.90;;;;;;5025332;28;20226;-84
2021/11/09 11:13:56;;;;;;;2.35;2.15;;;12.00;99.90;;;;;;5024991;28;20227;-81
2021/11/09 11:16:26;;;;;;;4.30;3.90;;;12.00;99.90;;;;;;5025175;28;20449;-87
2021/11/09 11:18:56;;;;;;;20.92;17.00;;;11.90;99.90;;;;;;5029503;28;20285;-82
2021/11/09 11:21:28;;;;;;;22.67;16.75;;;11.90;99.90;;;;;;5030380;28;20310;-80
2021/11/09 11:23:55;;;;;;;13.70;11.15;;;12.10;99.90;;;;;;5025434;28;20277;-81
2021/11/09 11:26:23;;;;;;;10.20;9.10;;;12.10;99.90;;;;;;5019491;28;20232;-86
2021/11/09 11:28:53;;;;;;;10.00;7.97;;;12.00;99.90;;;;;;5027725;28;20223;-86
2021/11/09 11:31:21;;;;;;;5.93;5.28;;;11.90;99.90;;;;;;5009390;28;20230;-88
2021/11/09 11:33:49;;;;;;;5.35;4.63;;;11.90;99.90;;;;;;5048367;28;20223;-84
2021/11/09 11:36:18;;;;;;;3.90;3.40;;;11.70;99.90;;;;;;5017512;28;21318;-80
2021/11/09 11:38:47;;;;;;;3.22;2.92;;;11.60;99.90;;;;;;5019912;28;20234;-82
2021/11/09 11:41:16;;;;;;;3.13;2.60;;;11.60;99.90;;;;;;5032428;28;20223;-85
2021/11/09 11:43:57;;;;;;;3.20;2.60;;;11.60;99.90;;;;;;5028910;28;20223;-80
2021/11/09 11:46:48;;;;;;;3.28;2.45;;;11.60;99.90;;;;;;5027525;28;20219;-84
2021/11/09 11:49:19;;;;;;;2.83;2.45;;;11.60;99.90;;;;;;5031417;28;20310;-84
2021/11/09 11:52:07;;;;;;;3.15;2.08;;;11.60;99.90;;;;;;5029907;28;20346;-86
2021/11/09 11:54:42;;;;;;;2.05;1.95;;;11.50;99.90;;;;;;5028024;28;20231;-82
2021/11/09 11:57:10;;;;;;;2.00;1.88;;;11.50;99.90;;;;;;5027712;28;20222;-83
2021/11/09 11:59:42;;;;;;;2.10;2.00;;;11.40;99.90;;;;;;5025392;28;20235;-82
2021/11/09 12:02:11;;;;;;;2.08;1.98;;;11.40;99.90;;;;;;5027365;28;20241;-81
2021/11/09 12:04:54;;;;;;;2.28;2.08;;;11.30;99.90;;;;;;5027819;28;20245;-87
2021/11/09 12:07:54;;;;;;;1.92;1.83;;;11.30;99.90;;;;;;5026958;28;20858;-83
2021/11/09 12:10:22;;;;;;;2.00;1.90;;;11.30;99.90;;;;;;5022869;28;20223;-82
2021/11/09 12:13:03;;;;;;;2.33;2.13;;;11.40;99.90;;;;;;5027120;28;20276;-85
2021/11/09 12:15:51;;;;;;;2.40;2.20;;;11.40;99.90;;;;;;5027384;28;20253;-85
2021/11/09 12:18:41;;;;;;;2.83;2.30;;;11.50;99.90;;;;;;5026591;28;20239;-82
2021/11/09 12:21:23;;;;;;;2.85;2.42;;;11.50;99.90;;;;;;5019522;28;20231;-82
2021/11/09 12:24:12;;;;;;;3.63;2.63;;;11.60;99.90;;;;;;5012804;28;20243;-87
2021/11/09 12:26:45;;;;;;;2.50;2.30;;;11.50;99.90;;;;;;5020810;28;20242;-83
2021/11/09 12:29:51;;;;;;;2.42;2.22;;;11.30;99.90;;;;;;5025113;28;20223;-81
2021/11/09 12:32:33;;;;;;;4.07;2.47;;;11.10;99.90;;;;;;5027054;28;20223;-85
2021/11/09 12:35:05;;;;;;;3.92;2.50;;;11.00;99.90;;;;;;5025408;28;20215;-86
2021/11/09 12:37:33;;;;;;;2.15;1.92;;;10.80;99.90;;;;;;5021290;28;20219;-85
2021/11/09 12:40:31;;;;;;;2.55;2.35;;;10.70;99.90;;;;;;5017008;28;20717;-81
2021/11/09 12:43:14;;;;;;;3.03;2.30;;;10.70;99.90;;;;;;5024362;28;20280;-83
2021/11/09 12:45:44;;;;;;;3.03;2.70;;;10.70;99.90;;;;;;5030705;28;20222;-82
2021/11/09 12:48:14;;;;;;;3.78;2.67;;;10.70;99.90;;;;;;5028914;28;20277;-83
2021/11/09 12:50:55;;;;;;;2.53;2.30;;;10.80;99.90;;;;;;5033916;28;20224;-82
2021/11/09 12:53:24;;;;;;;2.40;2.20;;;10.80;99.90;;;;;;5028287;28;20312;-81
2021/11/09 12:56:08;;;;;;;2.20;2.10;;;10.80;99.90;;;;;;5035516;28;21569;-82
2021/11/09 12:58:45;;;;;;;2.28;2.08;;;11.00;99.90;;;;;;5025241;28;20619;-81
2021/11/09 13:01:32;;;;;;;2.28;2.08;;;11.30;99.90;;;;;;5031784;28;20246;-83
2021/11/09 13:04:07;;;;;;;1.90;1.80;;;11.50;99.90;;;;;;5026582;28;20227;-84
2021/11/09 13:07:02;;;;;;;2.20;1.90;;;11.80;99.90;;;;;;5031731;28;20227;-81
2021/11/09 13:09:33;;;;;;;1.88;1.73;;;11.70;99.90;;;;;;5029842;28;20732;-85
2021/11/09 13:12:04;;;;;;;1.88;1.77;;;11.70;99.90;;;;;;5031436;28;20238;-84
2021/11/09 13:14:36;;;;;;;1.77;1.67;;;11.60;99.90;;;;;;5029564;28;20225;-82
2021/11/09 13:17:14;;;;;;;1.90;1.80;;;11.50;99.90;;;;;;5027108;28;20234;-82
2021/11/09 13:19:43;;;;;;;2.13;2.03;;;11.60;99.90;;;;;;5020330;28;20297;-84
2021/11/09 13:22:13;;;;;;;2.40;2.13;;;11.60;99.90;;;;;;5027395;28;20275;-85
2021/11/09 13:24:43;;;;;;;2.67;2.22;;;11.60;99.90;;;;;;5020439;28;20494;-80
2021/11/09 13:27:14;;;;;;;2.30;2.10;;;11.60;99.90;;;;;;5031066;28;20227;-84
2021/11/09 13:29:48;;;;;;;2.20;1.98;;;11.60;99.90;;;;;;5031242;28;20239;-84
2021/11/09 13:32:18;;;;;;;2.33;2.13;;;11.60;99.90;;;;;;5029915;28;20221;-83
2021/11/09 13:34:56;;;;;;;3.72;2.35;;;11.50;99.90;;;;;;5028599;28;20666;-82
2021/11/09 13:37:23;;;;;;;2.35;2.15;;;11.50;99.90;;;;;;5030775;28;20215;-84
2021/11/09 13:40:01;;;;;;;3.72;2.30;;;11.40;99.90;;;;;;5032759;28;20634;-84
2021/11/09 13:42:30;;;;;;;2.60;2.40;;;11.40;99.90;;;;;;5032185;28;20239;-85
2021/11/09 13:44:58;;;;;;;2.95;2.50;;;11.40;99.90;;;;;;5026722;28;20723;-86
2021/11/09 13:47:33;;;;;;;2.53;2.33;;;11.30;99.90;;;;;;5025781;28;20215;-83
2021/11/09 13:50:09;;;;;;;3.35;2.67;;;11.20;99.90;;;;;;5031558;28;20237;-81
2021/11/09 13:52:42;;;;;;;2.55;2.35;;;11.10;99.90;;;;;;5028239;28;20302;-85
2021/11/09 13:55:10;;;;;;;2.85;2.65;;;11.30;99.90;;;;;;5030495;28;20223;-82
2021/11/09 13:57:38;;;;;;;2.50;2.30;;;11.40;99.90;;;;;;5029834;28;20238;-82
2021/11/09 14:00:25;;;;;;;4.75;3.58;;;11.60;99.90;;;;;;5028453;28;20594;-82
2021/11/09 14:03:14;;;;;;;4.53;3.35;;;11.80;99.90;;;;;;5025664;28;20230;-84
2021/11/09 14:08:54;;;;;;;4.97;3.05;;;11.80;99.90;;;;;;5020003;28;20222;-80
2021/11/09 14:17:02;;;;;;;2.60;2.40;;;11.40;99.90;;;;;;5003605;28;20239;-67
2021/11/09 14:19:32;;;;;;;2.75;2.55;;;11.40;99.90;;;;;;5010082;28;20268;-67
2021/11/09 14:22:08;;;;;;;4.68;3.05;;;11.30;99.90;;;;;;5011615;28;20304;-67
2021/11/09 14:24:35;;;;;;;2.88;2.45;;;11.20;99.90;;;;;;5011050;28;20248;-70
2021/11/09 14:27:05;;;;;;;3.63;3.05;;;11.10;99.90;;;;;;5019655;28;20611;-68
2021/11/09 14:29:37;;;;;;;7.85;4.75;;;11.10;99.90;;;;;;5006833;28;20597;-69
2021/11/09 14:32:09;;;;;;;7.97;4.70;;;11.10;99.90;;;;;;5005591;28;20220;-69
2021/11/09 14:34:37;;;;;;;5.65;4.07;;;11.00;99.90;;;;;;5006645;28;20231;-66
2021/11/09 14:37:18;;;;;;;6.85;3.97;;;11.00;99.90;;;;;;5027658;28;20311;-66
2021/11/09 14:40:04;;;;;;;3.80;3.33;;;10.80;99.90;;;;;;5025986;28;20229;-67
2021/11/09 14:42:44;;;;;;;3.17;2.88;;;10.60;99.90;;;;;;5027020;28;20217;-64
2021/11/09 14:45:22;;;;;;;4.72;2.67;;;10.40;99.90;;;;;;5024628;28;20232;-69
2021/11/09 14:47:55;;;;;;;2.78;2.55;;;10.40;99.90;;;;;;5027358;28;20222;-67
2021/11/09 14:50:31;;;;;;;2.40;2.20;;;10.30;99.90;;;;;;5024192;28;20226;-66
2021/11/09 14:53:11;;;;;;;3.63;2.97;;;10.20;99.90;;;;;;5025383;28;20227;-66
2021/11/09 14:55:42;;;;;;;2.58;2.38;;;10.20;99.90;;;;;;5023846;28;20293;-67